ヌーク空港の過去48時間の天気

ヌーク空港 (Godthaab / Nuuk)

現在時刻: 9/28 06:52 -02 (9/28 08:52 UTC) 以下の時間は現地時間です。

過去48時間のMETAR気象情報
時間 風向 風速(m/s) 視程 気温(℃) 湿度(%) 気圧(hPa) 天気現象
28 05:50 東北東 1 10km以上 0 93 1009
28 04:50 2 - 0 93 1009
28 03:50 東南東 3 - 0 100 1008
28 02:50 2 - 0 100 1008
28 01:50 東南東 3 - 0 100 1008 弱い雪
28 00:50 静穏 0 - 1 86 1008 弱いしゅう雪
27 23:50 北西 1 - 2 75 1008
27 22:50 北北西 2 - 2 69 1008
27 21:50 北北西 3 - 2 75 1008
27 20:50 3 - 2 75 1008
27 19:50 北北西 3 - 2 75 1008
27 18:50 北西 4 - 2 75 1008
27 17:50 北西 5 - 2 75 1008
27 16:50 北西 5 - 3 75 1007
27 15:50 北西 5 10km以上 2 81 1006 周辺でしゅう雨
27 14:50 西北西 4 10km以上 3 75 1006 周辺でしゅう雨
27 13:50 西北西 5 10km以上 2 81 1006 周辺でしゅう雨
27 12:50 西北西 2 10km以上 1 93 1006 周辺でしゅう雨
27 11:50 北西 3 10km以上 2 87 1005 弱い雪 弱い雨
27 10:50 北北西 2 10km以上 2 81 1005 弱い霧雨
27 09:50 西 1 - 2 81 1005
27 08:50 不定 1 - 1 93 1004 弱いしゅう雨
27 07:50 静穏 0 - 1 93 1004
27 06:50 不定 1 - 1 93 1004
27 05:50 北北東 2 - 1 93 1003 弱いしゅう雨
27 04:50 北北西 2 - 1 93 1003
27 03:50 北北東 2 - 2 87 1002
27 02:50 北北東 3 - 2 87 1002
27 01:50 東北東 3 - 2 93 1002 弱い霧雪
27 00:50 北北東 2 - 2 93 1002 弱い雪
26 23:50 2 10km以上 2 93 1002 弱い雪
26 22:50 3 10km以上 2 93 1002
26 21:50 北北東 3 10km以上 3 87 1001
26 20:50 2 - 3 87 1001
26 19:50 3 - 3 93 1001
26 18:50 3 - 4 93 1000
26 17:50 北北東 3 10km以上 4 93 1000
26 16:50 3 10km以上 5 87 999
26 15:50 3 10km以上 6 81 999
26 14:50 北北東 4 10km以上 7 76 998
26 13:50 東北東 4 10km以上 6 70 998
26 12:50 北東 4 10km以上 6 70 998
26 11:50 北北東 3 10km以上 4 87 998
26 10:50 北東 5 10km以上 3 93 997
26 09:50 北東 4 10km以上 3 87 997
26 08:50 北東 5 10km以上 2 100 997
26 07:50 北東 4 10km以上 3 93 997
BGGH 280750Z 06001KT 9999 FEW020 BKN050 00/M01 Q1009
BGGH 280650Z AUTO 36004KT 9999NDV BKN052/// M00/M01 Q1009
BGGH 280550Z AUTO 11005KT 9999NDV FEW007/// BKN033/// 00/M00 Q1008
BGGH 280450Z AUTO 19003KT 9999NDV OVC005/// 00/M00 Q1008
BGGH 280350Z AUTO 12006KT 1800NDV -SN OVC010/// M00/M00 Q1008
BGGH 280250Z AUTO 00000KT 9999NDV -SHSN OVC021/// 01/M01 Q1008
BGGH 280150Z AUTO 32002KT 9999NDV OVC031/// 02/M02 Q1008
BGGH 280050Z AUTO 33004KT 260V030 9999NDV OVC027/// 02/M03 Q1008
BGGH 272350Z AUTO 34006KT 320V020 9999NDV OVC027/// 02/M02 Q1008
BGGH 272250Z AUTO 35005KT 9999NDV OVC025/// 02/M02 Q1008
BGGH 272150Z AUTO 33006KT 300V360 9999NDV OVC025/// 02/M02 Q1008
BGGH 272050Z AUTO 31007KT 290V350 9999NDV OVC022/// 02/M02 Q1008
BGGH 271950Z AUTO 31009KT 290V350 9999NDV OVC024/// 02/M02 Q1008
BGGH 271850Z AUTO 32009KT 9999NDV BKN025/// 03/M01 Q1007
BGGH 271750Z 32009KT 290V350 9999 VCSH FEW005 BKN025 02/M01 Q1006
BGGH 271650Z 30008KT 9999 VCSH FEW008 BKN025 03/M01 Q1006
BGGH 271550Z 30009KT 9999 VCSH BKN022 02/M01 Q1006
BGGH 271450Z 30004KT 260V350 9999 VCSH FEW008 BKN018 01/M00 Q1006
BGGH 271350Z 31005KT 280V340 9999 -SNRA FEW008 BKN015 02/M00 Q1005
BGGH 271250Z 33003KT 9999 -DZ BKN020 02/M01 Q1005
BGGH 271150Z AUTO 28002KT 9999NDV BKN028/// 02/M01 Q1005
BGGH 271050Z AUTO VRB02KT 9000NDV -SHRA FEW002/// FEW009/// SCT032/// BKN044/// 01/M00 Q1004
BGGH 270950Z AUTO 00000KT 9999NDV OVC023/// 01/M00 Q1004
BGGH 270850Z AUTO VRB02KT 9999NDV BKN021/// 01/M00 Q1004
BGGH 270750Z AUTO 02004KT 340V070 9999NDV -SHRA BKN017/// 01/M00 Q1003
BGGH 270650Z AUTO 34004KT 310V020 9999NDV FEW014/// OVC024/// 01/00 Q1003
BGGH 270550Z AUTO 02003KT 9999NDV FEW012/// FEW023/// BKN100/// 02/00 Q1002
BGGH 270450Z AUTO 03005KT 340V060 9999NDV FEW010/// SCT022/// BKN089/// BKN100/// 02/00 Q1002
BGGH 270350Z AUTO 06005KT 9999NDV -SG BKN006/// 02/01 Q1002
BGGH 270250Z AUTO 02003KT 7000NDV -SN OVC007/// 02/01 Q1002
BGGH 270150Z 01004KT 9999 -SN SCT008 BKN018 02/01 Q1002
BGGH 270050Z 35005KT 320V030 9999 BKN008 BKN015 02/01 Q1002
BGGH 262350Z 03005KT 9999 BKN008 03/01 Q1001
BGGH 262250Z AUTO 01004KT 9999NDV OVC007/// 03/01 Q1001
BGGH 262150Z AUTO 36006KT 9999NDV OVC005/// 03/02 Q1001
BGGH 262050Z AUTO 36005KT 330V030 9999NDV BKN008/// OVC024/// 04/03 Q1000
BGGH 261950Z 02006KT 350V050 9999 FEW010 BKN070 04/03 Q1000
BGGH 261850Z 36006KT 9999 FEW013 BKN070 05/03 Q0999
BGGH 261750Z 01006KT 340V040 9999 FEW015 BKN070 06/03 Q0999
BGGH 261650Z 03007KT 9999 FEW015 BKN070 07/03 Q0998
BGGH 261550Z 06007KT 9999 FEW015 BKN075 06/01 Q0998
BGGH 261450Z 05007KT 9999 FEW015 BKN070 06/01 Q0998
BGGH 261350Z 03005KT 9999 FEW013 BKN070 04/02 Q0998
BGGH 261250Z 05009KT 9999 FEW050 03/02 Q0997
BGGH 261150Z 05008KT 9999 FEW055 03/01 Q0997
BGGH 261050Z 05009KT 9999 FEW060 02/02 Q0997
BGGH 260950Z 05007KT 9999 FEW060 03/02 Q0997